Time;durP1;ratioP1;P1;durP2;ratioP2;P2;SDS_P1;SDS_P2;PMS_P1;PMS_P2;Temp;Humidity;BMP_temperature;BMP_pressure;BME280_temperature;BME280_humidity;BME280_pressure;Samples;Min_cycle;Max_cycle;Signal;HPM_P1;HPM_P2
2023/12/25 00:04:12;;;;;;;;;;;8.50;99.90;;;;;;20932364;28;19925;-80
2023/12/25 00:14:13;;;;;;;;;;;8.30;99.90;;;;;;20922322;28;19913;-82
2023/12/25 00:24:13;;;;;;;;;;;8.20;99.90;;;;;;20932722;28;19908;-80
2023/12/25 00:34:15;;;;;;;;;;;8.20;99.90;;;;;;20970878;28;19913;-82
2023/12/25 00:44:15;;;;;;;;;;;8.40;99.90;;;;;;20946133;28;19908;-80
2023/12/25 00:54:16;;;;;;;;;;;8.90;99.90;;;;;;20939139;28;19919;-83
2023/12/25 01:04:17;;;;;;;;;;;8.30;99.90;;;;;;20953577;28;19968;-84
2023/12/25 01:14:18;;;;;;;;;;;8.80;99.90;;;;;;20971602;28;19980;-82
2023/12/25 01:24:19;;;;;;;;;;;9.20;99.90;;;;;;20949990;28;19915;-81
2023/12/25 01:34:20;;;;;;;;;;;9.30;99.90;;;;;;20963751;28;19913;-83
2023/12/25 01:44:20;;;;;;;;;;;9.50;99.90;;;;;;20951642;28;19909;-83
2023/12/25 01:54:21;;;;;;;;;;;8.70;99.90;;;;;;20969199;28;19920;-82
2023/12/25 02:04:21;;;;;;;;;;;8.50;99.90;;;;;;20943116;28;20412;-84
2023/12/25 02:14:22;;;;;;;;;;;8.40;99.90;;;;;;20945385;28;19912;-81
2023/12/25 02:24:27;;;;;;;;;;;8.30;99.90;;;;;;20939023;28;19909;-81
2023/12/25 02:34:27;;;;;;;;;;;8.30;99.90;;;;;;20961558;28;19912;-80
2023/12/25 02:44:29;;;;;;;;;;;8.20;99.90;;;;;;20963987;28;19909;-82
2023/12/25 02:54:29;;;;;;;;;;;8.20;99.90;;;;;;20956928;28;20332;-82
2023/12/25 03:04:31;;;;;;;;;;;8.20;99.90;;;;;;20961086;28;19913;-82
2023/12/25 03:14:32;;;;;;;;;;;8.20;99.90;;;;;;20939536;28;19940;-83
2023/12/25 03:24:32;;;;;;;;;;;8.10;99.90;;;;;;20960208;28;19909;-82
2023/12/25 03:34:44;;;;;;;;;;;8.30;99.90;;;;;;20939910;28;19984;-82
2023/12/25 03:44:45;;;;;;;;;;;8.20;99.90;;;;;;20961536;28;19909;-84
2023/12/25 03:54:46;;;;;;;;;;;8.30;99.90;;;;;;20955502;28;19940;-82
2023/12/25 04:04:47;;;;;;;;;;;8.30;99.90;;;;;;20955274;28;19942;-81
2023/12/25 04:14:48;;;;;;;;;;;8.10;99.90;;;;;;20944421;28;19923;-83
2023/12/25 04:24:49;;;;;;;;;;;7.60;99.90;;;;;;20951344;28;19909;-84
2023/12/25 04:34:49;;;;;;;;;;;7.70;99.90;;;;;;20939772;28;20165;-82
2023/12/25 04:44:50;;;;;;;;;;;7.90;99.90;;;;;;20972959;28;19939;-81
2023/12/25 04:54:51;;;;;;;;;;;8.00;99.90;;;;;;20952160;28;19912;-79
2023/12/25 05:04:52;;;;;;;;;;;7.80;99.90;;;;;;20902758;28;19984;-80
2023/12/25 05:14:52;;;;;;;;;;;7.60;99.90;;;;;;20953964;28;19919;-82
2023/12/25 05:24:53;;;;;;;;;;;7.60;99.90;;;;;;20926562;28;19915;-81
2023/12/25 05:34:54;;;;;;;;;;;7.50;99.90;;;;;;20942040;28;19913;-80
2023/12/25 05:44:54;;;;;;;;;;;7.40;99.90;;;;;;20957553;28;19917;-79
2023/12/25 05:54:55;;;;;;;;;;;7.40;99.90;;;;;;20919956;28;20438;-79
2023/12/25 06:04:56;;;;;;;;;;;7.40;99.90;;;;;;20899459;28;19951;-79
2023/12/25 06:14:56;;;;;;;;;;;7.60;99.90;;;;;;20903681;28;19963;-81
2023/12/25 06:24:57;;;;;;;;;;;7.50;99.90;;;;;;20932370;28;19923;-82
2023/12/25 06:34:58;;;;;;;;;;;7.30;99.90;;;;;;20939871;28;20335;-81
2023/12/25 06:44:58;;;;;;;;;;;7.40;99.90;;;;;;20940483;28;19909;-81
2023/12/25 06:55:01;;;;;;;;;;;7.40;99.90;;;;;;20946215;28;19936;-80
2023/12/25 07:05:02;;;;;;;;;;;7.40;99.90;;;;;;20948902;28;19912;-80
2023/12/25 07:15:03;;;;;;;;;;;7.20;99.90;;;;;;20918523;28;19916;-80
2023/12/25 07:25:06;;;;;;;;;;;7.00;99.90;;;;;;20914480;28;19931;-81
2023/12/25 07:35:07;;;;;;;;;;;6.90;99.90;;;;;;20916655;28;19913;-80
2023/12/25 07:45:07;;;;;;;;;;;6.80;99.90;;;;;;20935919;28;19961;-80
2023/12/25 07:55:08;;;;;;;;;;;7.00;99.90;;;;;;20920823;28;19912;-79
2023/12/25 08:05:09;;;;;;;;;;;6.90;99.90;;;;;;20904959;28;19935;-80
2023/12/25 08:15:11;;;;;;;;;;;7.50;99.90;;;;;;20910467;28;20348;-79
2023/12/25 08:25:12;;;;;;;;;;;8.40;99.90;;;;;;20898784;28;20455;-79
2023/12/25 08:35:12;;;;;;;;;;;9.10;99.90;;;;;;20905463;28;19955;-79
2023/12/25 08:45:14;;;;;;;;;;;9.20;99.90;;;;;;20919328;28;19908;-79
2023/12/25 08:55:14;;;;;;;;;;;9.70;99.90;;;;;;20934151;28;19920;-78
2023/12/25 09:05:15;;;;;;;;;;;9.30;99.90;;;;;;20917133;28;20262;-78
2023/12/25 09:15:16;;;;;;;;;;;9.00;99.90;;;;;;20918536;28;19912;-78
2023/12/25 09:25:16;;;;;;;;;;;8.90;99.90;;;;;;20916369;28;20427;-80
2023/12/25 09:35:18;;;;;;;;;;;8.90;99.90;;;;;;20929419;28;19912;-81
2023/12/25 09:45:18;;;;;;;;;;;8.90;99.90;;;;;;20937174;28;19909;-80
2023/12/25 09:55:19;;;;;;;;;;;9.00;99.90;;;;;;20912008;28;19966;-81
2023/12/25 10:05:20;;;;;;;;;;;9.00;99.90;;;;;;20923383;28;19916;-79
2023/12/25 10:15:21;;;;;;;;;;;9.10;99.90;;;;;;20939614;28;19913;-84
2023/12/25 10:25:27;;;;;;;;;;;9.20;99.90;;;;;;20956811;28;19908;-82
2023/12/25 10:35:27;;;;;;;;;;;9.40;99.90;;;;;;20976073;28;19919;-83
2023/12/25 10:45:30;;;;;;;;;;;9.60;99.90;;;;;;20952512;28;19913;-82
2023/12/25 10:55:38;;;;;;;;;;;10.60;99.90;;;;;;20914590;28;19936;-80
2023/12/25 11:05:39;;;;;;;;;;;11.20;99.90;;;;;;20932902;28;19913;-82
2023/12/25 11:15:40;;;;;;;;;;;10.10;99.90;;;;;;20943116;28;19991;-82
2023/12/25 11:25:42;;;;;;;;;;;9.90;99.90;;;;;;20967100;28;19983;-81
2023/12/25 11:35:43;;;;;;;;;;;9.80;99.90;;;;;;20957810;28;19913;-80
2023/12/25 11:45:50;;;;;;;;;;;11.00;99.90;;;;;;20901197;28;20037;-79
2023/12/25 11:55:50;;;;;;;;;;;12.30;99.90;;;;;;20921019;28;19920;-80
2023/12/25 12:05:53;;;;;;;;;;;12.30;99.90;;;;;;20937070;28;19912;-81
2023/12/25 12:15:53;;;;;;;;;;;13.00;99.90;;;;;;20943211;28;19912;-81
2023/12/25 12:25:54;;;;;;;;;;;13.10;99.90;;;;;;20924185;28;19916;-81
2023/12/25 12:35:55;;;;;;;;;;;13.00;99.90;;;;;;20934228;28;20349;-79
2023/12/25 12:45:55;;;;;;;;;;;13.70;99.90;;;;;;20959471;28;20435;-81
2023/12/25 12:55:56;;;;;;;;;;;13.70;99.90;;;;;;20915459;28;20372;-79
2023/12/25 13:05:57;;;;;;;;;;;14.40;99.90;;;;;;20919817;28;19917;-79
2023/12/25 13:15:58;;;;;;;;;;;14.10;99.90;;;;;;20985950;22;19951;-80
2023/12/25 13:25:58;;;;;;;;;;;13.70;99.90;;;;;;21033135;28;19909;-80
2023/12/25 13:35:59;;;;;;;;;;;13.30;99.90;;;;;;21024401;28;19917;-80
2023/12/25 13:46:00;;;;;;;;;;;13.70;99.90;;;;;;21047383;28;19908;-80
2023/12/25 13:56:01;;;;;;;;;;;13.60;99.90;;;;;;21037060;28;19912;-80
2023/12/25 14:06:02;;;;;;;;;;;13.80;99.90;;;;;;21012806;28;19909;-79
2023/12/25 14:16:03;;;;;;;;;;;14.10;99.90;;;;;;21022396;28;19920;-80
2023/12/25 14:26:03;;;;;;;;;;;13.80;99.90;;;;;;21071778;28;19908;-80
2023/12/25 14:36:04;;;;;;;;;;;13.30;99.90;;;;;;21087060;28;20293;-80
2023/12/25 14:46:05;;;;;;;;;;;13.50;99.90;;;;;;21074382;28;19909;-79
2023/12/25 14:56:06;;;;;;;;;;;11.50;99.90;;;;;;21067193;28;20403;-79
2023/12/25 15:06:10;;;;;;;;;;;11.30;99.90;;;;;;21036098;28;19930;-80
2023/12/25 15:16:11;;;;;;;;;;;11.30;99.90;;;;;;21056284;28;19912;-80
2023/12/25 15:26:12;;;;;;;;;;;11.00;99.90;;;;;;21052461;28;19934;-80
2023/12/25 15:36:13;;;;;;;;;;;10.30;99.90;;;;;;21049049;28;19920;-79
2023/12/25 15:46:14;;;;;;;;;;;9.80;99.90;;;;;;21039880;28;19908;-80
2023/12/25 15:56:15;;;;;;;;;;;9.40;99.90;;;;;;21019944;28;19912;-79
2023/12/25 16:06:16;;;;;;;;;;;9.20;99.90;;;;;;21043113;28;19943;-81
2023/12/25 16:16:17;;;;;;;;;;;8.90;99.90;;;;;;21042821;28;19919;-80
2023/12/25 16:26:18;;;;;;;;;;;8.80;99.90;;;;;;21042606;28;19908;-80
2023/12/25 16:36:18;;;;;;;;;;;8.80;99.90;;;;;;21031631;28;19913;-79
2023/12/25 16:46:19;;;;;;;;;;;8.80;99.90;;;;;;21023466;28;19915;-79
2023/12/25 16:56:20;;;;;;;;;;;8.50;99.90;;;;;;21025042;28;19912;-78
2023/12/25 17:06:21;;;;;;;;;;;8.40;99.90;;;;;;21028500;28;19914;-79
2023/12/25 17:16:24;;;;;;;;;;;8.30;99.90;;;;;;21045564;28;20264;-79
2023/12/25 17:26:24;;;;;;;;;;;8.20;99.90;;;;;;21031085;28;19962;-79
2023/12/25 17:36:25;;;;;;;;;;;8.20;99.90;;;;;;21023267;28;19920;-77
2023/12/25 17:46:26;;;;;;;;;;;8.00;99.90;;;;;;21007778;28;20023;-78
2023/12/25 17:56:26;;;;;;;;;;;8.00;99.90;;;;;;20984511;28;19912;-79
2023/12/25 18:06:27;;;;;;;;;;;7.80;99.90;;;;;;21018000;28;19908;-79
2023/12/25 18:16:28;;;;;;;;;;;7.60;99.90;;;;;;21020686;28;19962;-79
2023/12/25 18:26:28;;;;;;;;;;;7.50;99.90;;;;;;21067068;28;19916;-78
2023/12/25 18:36:30;;;;;;;;;;;7.30;99.90;;;;;;21057239;28;19913;-78
2023/12/25 18:46:30;;;;;;;;;;;7.10;99.90;;;;;;21042745;28;19908;-79
2023/12/25 18:56:31;;;;;;;;;;;7.00;99.90;;;;;;21048306;28;20362;-79
2023/12/25 19:06:32;;;;;;;;;;;7.00;99.90;;;;;;21061574;28;19914;-80
2023/12/25 19:16:33;;;;;;;;;;;6.90;99.90;;;;;;21075222;28;19919;-80
2023/12/25 19:26:37;;;;;;;;;;;7.00;99.90;;;;;;21014879;28;19908;-79
2023/12/25 19:36:37;;;;;;;;;;;7.00;99.90;;;;;;21056618;28;19962;-78
2023/12/25 19:46:38;;;;;;;;;;;6.90;99.90;;;;;;21046515;28;20284;-79
2023/12/25 19:56:39;;;;;;;;;;;6.80;99.90;;;;;;21018633;28;20021;-79
2023/12/25 20:06:40;;;;;;;;;;;6.70;99.90;;;;;;21022908;28;19915;-80
2023/12/25 20:16:41;;;;;;;;;;;6.70;99.90;;;;;;21047113;28;19919;-79
2023/12/25 20:26:42;;;;;;;;;;;6.70;99.90;;;;;;21046297;28;19912;-79
2023/12/25 20:36:43;;;;;;;;;;;6.70;99.90;;;;;;21045065;28;19912;-79
2023/12/25 20:46:44;;;;;;;;;;;6.60;99.90;;;;;;21020046;28;20276;-79
2023/12/25 20:56:45;;;;;;;;;;;6.60;99.90;;;;;;21045526;28;19912;-79
2023/12/25 21:06:47;;;;;;;;;;;6.60;99.90;;;;;;21047240;28;19908;-80
2023/12/25 21:16:47;;;;;;;;;;;6.60;99.90;;;;;;21042760;28;19934;-77
2023/12/25 21:26:49;;;;;;;;;;;6.50;99.90;;;;;;21060463;28;19908;-79
2023/12/25 21:36:50;;;;;;;;;;;6.40;99.90;;;;;;21058768;28;19965;-79
2023/12/25 21:46:50;;;;;;;;;;;6.50;99.90;;;;;;21058714;28;19908;-79
2023/12/25 21:56:51;;;;;;;;;;;6.40;99.90;;;;;;21065090;28;19912;-79
2023/12/25 22:06:52;;;;;;;;;;;6.40;99.90;;;;;;21058163;28;19908;-79
2023/12/25 22:16:52;;;;;;;;;;;6.20;99.90;;;;;;21047623;28;19912;-80
2023/12/25 22:26:53;;;;;;;;;;;6.20;99.90;;;;;;21026621;28;20001;-79
2023/12/25 22:36:54;;;;;;;;;;;6.30;99.90;;;;;;21004434;28;20430;-78
2023/12/25 22:46:54;;;;;;;;;;;6.20;99.90;;;;;;21028209;28;20034;-79
2023/12/25 22:56:55;;;;;;;;;;;6.10;99.90;;;;;;21055210;28;19913;-79
2023/12/25 23:06:56;;;;;;;;;;;6.20;99.90;;;;;;21053658;28;20145;-79
2023/12/25 23:16:57;;;;;;;;;;;6.20;99.90;;;;;;21035968;28;19938;-79
2023/12/25 23:26:59;;;;;;;;;;;6.20;99.90;;;;;;21054816;28;20311;-78
2023/12/25 23:37:00;;;;;;;;;;;6.20;99.90;;;;;;21026501;28;19912;-79
2023/12/25 23:47:00;;;;;;;;;;;6.20;99.90;;;;;;21023803;28;19930;-79
2023/12/25 23:57:02;;;;;;;;;;;6.40;99.90;;;;;;21048731;28;19913;-79
